Beauvechain, Belgique

10:54 CEST le 07 juillet 2015 (GMT +0200)
Beauvechain Air Base | | Change Station
CLOSE
Current Station
Aéroport
Location: Beauvechain,
Altitude: 417 ft
Stations météo à proximité

Alt. 417 ft 50.76 °N, 4.77 °E | Updated 29 minutes ago

Mostly Cloudy
Nuageux
77 ° F
Paraît 77 ° F
N
7
Vent Variable Vent de SSO

Aujourd'hui
Haut(e) -- | Bas -- ° F
--% Risque de précip.
Hier
Haut(e) -- | Bas -- ° F
Precip. -- pouce
5:36 AM 9:54 PM
Lune gibbeuse décroissante, 67% visible
Pression 29.86 pouce
Visibilité 6.2 Miles terrestres
Nuages Peu 7000 ft
Nuageux 19000 ft
Point de rosée 57 ° F
Humidité 50%
Précipitations 0.00 pouce
Profondeur de la couche neigeuse Non disponible.
UV 3 sur 12
Pollen Non disponible.
Qualité de l'air Non disponible.
Flu Activity Non disponible.
METAR EBBE 070825Z 20006KT 9999 FEW070 BKN190 25/14 Q1011 BLU BLU

More Conditions Fewer Conditions

Pression 29.86 pouce
Visibilité 6.2 Miles terrestres
Nuages Peu 7000 ft
Nuageux 19000 ft
Point de rosée 57 ° F
Humidité 50%
Précipitations 0.00 pouce
Profondeur de la couche neigeuse Non disponible.
UV 3 sur 12
Pollen Non disponible.
Qualité de l'air Non disponible.
Flu Activity Non disponible.
METAR EBBE 070825Z 20006KT 9999 FEW070 BKN190 25/14 Q1011 BLU BLU

More Conditions Fewer Conditions

10-Day Weather Forecast

×

Almanac

Astronomie

Jul. 07, 2015 Lever Coucher
Temps réel
Crépuscule civil
Crépuscule nautique
Crépuscule astronomique
Lune
Durée de lumière visible
Longueur du jour
Tomorrow will be .
, % of the Moon is Illuminated

Extrêmes aujourd'hui

Country Highs Country Lows

Community

WunderPhotos

Upload Photos

1,835,758 Photos téléchargées !

WunderBlogs® & News

Nearby

Qualité de l'air

  Qualité de l'air Indice de la qualité de l'air Polluant
Not available.

Épaisseur de neige

Station Depth Altitude

Activité sismique

Ville Distance Mag. Time & Date
Minimum magnitude displayed is 2.5.

Températures des eaux côtières

Lieu Température

Stations

Stations météo à proximité

Emplacement de la station Température Refroidissement éolien Point de rosée Humidité Vent Precip. Alt. Mise à jour Type